Latest Weather Observations for Falls Creek

IDV60801

Issued at 6:02 pm EDT Friday 27 March 2015 (issued every 30 minutes, with the page automatically refreshed every 10 minutes)

About weather observations | Map of weather stations | Latest weather observations for VIC | Other Formats
Station Details ID: 083084 Name: FALLS CREEK Lat: -36.87 Lon: 147.28 Height: 1765.0 m
Data from the previous 72 hours. | See also: Recent months at Falls Creek
Date/Time
EDT
Temp
°C
App
Temp
°C
Dew
Point
Rel
Hum
%
Delta-T
°C
Wind Press
QNH
hPa
Press
MSL
hPa
Rain
since 9 am
mm
Dir
 
Spd
km/h
Gust
km/h
Spd
kts
Gust
kts
27/06:00pm 3.2 -0.7 3.2 100 0.0 W 13 19 7 10 1021.9 1016.0 0.0
27/05:30pm 3.5 -0.4 3.5 100 0.0 W 13 24 7 13 1021.7 1015.8 0.0
27/05:00pm 3.4 -0.5 3.4 100 0.0 W 13 19 7 10 1021.7 1015.8 0.0
27/04:30pm 3.1 -1.2 3.1 100 0.0 WNW 15 24 8 13 1021.7 1015.8 0.0
27/04:00pm 3.2 -0.7 3.2 100 0.0 W 13 20 7 11 1021.4 1015.5 0.0
27/03:30pm 3.5 -0.4 3.5 100 0.0 W 13 20 7 11 1021.7 1015.8 0.0
27/03:00pm 3.3 -1.9 3.3 100 0.0 W 20 32 11 17 1021.7 1015.8 0.0
27/02:30pm 2.8 -2.5 2.8 100 0.0 WNW 20 33 11 18 1021.5 1015.6 0.0
27/02:00pm 3.0 -2.7 3.0 100 0.0 W 22 35 12 19 1021.5 1015.6 0.0
27/01:30pm 2.7 -3.0 2.7 100 0.0 WNW 22 32 12 17 1021.3 1015.4 0.0
27/01:00pm 2.7 -4.2 2.7 100 0.0 WNW 28 48 15 26 1021.2 1015.3 0.0
27/12:53pm 3.1 -4.5 3.1 100 0.0 WNW 32 48 17 26 1020.8 1014.9 0.0
27/12:30pm 2.6 -4.3 2.6 100 0.0 W 28 39 15 21 1021.3 1015.4 0.0
27/12:00pm 2.3 -4.6 2.3 100 0.0 WSW 28 44 15 24 1021.5 1015.6 0.0
27/11:30am 1.7 -3.6 1.7 100 0.0 WNW 19 30 10 16 1021.7 1015.8 0.0
27/11:00am 1.5 -4.8 1.5 100 0.0 WNW 24 39 13 21 1021.1 1015.1 0.0
27/10:30am 1.4 -4.2 1.4 100 0.0 WNW 20 33 11 18 1020.8 1014.9 0.0
27/10:00am 1.2 -6.3 1.2 100 0.0 WNW 30 48 16 26 1020.3 1014.4 0.0
27/09:38am 1.0 -6.5 1.0 100 0.0 WNW 30 50 16 27 1020.0 1014.0 0.0
27/09:30am 1.0 -5.8 1.0 100 0.0 WNW 26 39 14 21 1020.0 1014.0 0.0
27/09:00am 0.8 -6.8 0.8 100 0.0 WNW 30 50 16 27 1020.0 1014.0 0.0
27/08:36am 0.7 -6.5 0.7 100 0.0 WNW 28 46 15 25 1019.4 1013.4 0.0
27/08:30am 0.7 -5.7 0.7 100 0.0 WNW 24 37 13 20 1019.4 1013.4 0.0
27/08:00am 0.6 -5.9 0.6 100 0.0 NW 24 43 13 23 1019.4 1013.4 0.0
27/07:30am 0.7 -6.1 0.7 100 0.0 WNW 26 48 14 26 1019.2 1013.2 0.0
27/07:24am 0.7 -6.5 0.7 100 0.0 WNW 28 48 15 26 1018.9 1012.9 0.0
27/07:00am 0.7 -6.1 0.7 100 0.0 NW 26 44 14 24 1018.4 1012.4 0.0
27/06:31am 0.8 -7.1 0.8 100 0.0 WNW 32 52 17 28 1018.3 1012.3 0.0
27/06:30am 0.8 -7.1 0.8 100 0.0 WNW 32 46 17 25 1018.3 1012.3 0.0
27/06:14am 0.7 -6.5 0.7 100 0.0 NW 28 46 15 25 1018.1 1012.1 0.0
27/06:00am 0.8 -6.4 0.8 100 0.0 NW 28 44 15 24 1018.0 1011.9 0.0
27/05:40am 0.7 -6.5 0.7 100 0.0 NW 28 50 15 27 1017.9 1011.8 0.0
27/05:30am 0.7 -5.4 0.7 100 0.0 NW 22 35 12 19 1018.0 1011.9 0.0
27/05:00am 0.7 -6.5 0.7 100 0.0 NW 28 44 15 24 1018.0 1011.9 0.0
27/04:40am 0.6 -6.6 0.6 100 0.0 NW 28 52 15 28 1018.1 1012.1 0.0
27/04:30am 0.4 -6.1 0.4 100 0.0 NW 24 43 13 23 1018.1 1012.1 0.0
27/04:00am 0.5 -6.7 0.5 100 0.0 NW 28 44 15 24 1017.9 1011.8 0.0
27/03:44am 0.4 -6.8 0.4 100 0.0 NNW 28 46 15 25 1017.7 1011.7 0.0
27/03:30am 0.5 -6.3 0.5 100 0.0 NW 26 39 14 21 1017.9 1011.8 0.0
27/03:00am 0.5 -7.1 0.4 99 0.0 NW 30 44 16 24 1018.0 1011.9 0.0
27/02:30am 0.4 -7.2 0.3 99 0.0 NW 30 48 16 26 1018.1 1012.1 0.0
27/02:29am 0.4 -6.9 0.3 99 0.0 NW 28 48 15 26 1018.0 1011.9 0.0
27/02:00am 0.4 -6.5 0.3 99 0.0 NW 26 41 14 22 1018.3 1012.3 0.0
27/01:30am 0.2 -7.8 0.1 99 0.0 NNW 32 57 17 31 1018.1 1012.1 0.0
27/01:06am 0.2 -7.1 0.1 99 0.0 NW 28 46 15 25 1018.4 1012.4 0.0
27/01:00am 0.1 -8.0 0.0 99 0.0 NW 32 46 17 25 1018.3 1012.3 0.0
27/12:30am 0.1 -8.2 0.0 99 0.0 NW 33 57 18 31 1018.2 1012.2 0.0
27/12:00am 0.1 -8.9 -0.2 98 0.1 NW 37 57 20 31 1018.6 1012.6 0.0
 
Date/Time
EDT
Temp
°C
App
Temp
°C
Dew
Point
Rel
Hum
%
Delta-T
°C
Wind Press
QNH
hPa
Press
MSL
hPa
Rain
since 9 am
mm
Dir
 
Spd
km/h
Gust
km/h
Spd
kts
Gust
kts
26/11:30pm 0.4 -9.1 -0.7 92 0.5 NNW 39 61 21 33 1018.4 1012.4 0.0
26/11:19pm 0.5 -8.3 -1.3 88 0.7 NNW 35 54 19 29 1018.7 1012.7 0.0
26/11:00pm 0.6 -8.6 -1.6 85 0.9 NNW 37 52 20 28 1018.7 1012.7 0.0
26/10:30pm 0.7 -8.6 -2.2 81 1.2 NNW 37 57 20 31 1018.7 1012.7 0.0
26/10:00pm 0.9 -9.2 -2.7 77 1.4 NNW 41 63 22 34 1018.6 1012.6 0.0
26/09:30pm 0.9 -9.8 -3.0 75 1.5 NNW 44 65 24 35 1018.4 1012.4 0.0
26/09:01pm 0.7 -9.9 -3.2 75 1.5 NNW 43 63 23 34 1018.4 1012.4 0.0
26/09:00pm 0.7 -9.9 -3.2 75 1.5 NNW 43 59 23 32 1018.6 1012.6 0.0
26/08:30pm 0.7 -9.1 -3.4 74 1.6 NNW 39 59 21 32 1018.6 1012.6 0.0
26/08:00pm 0.7 -9.9 -3.4 74 1.6 NNW 43 63 23 34 1018.3 1012.3 0.0
26/07:32pm 0.9 -9.0 -3.6 72 1.7 NNW 39 57 21 31 1018.2 1012.2 0.0
26/07:30pm 0.9 -8.6 -3.6 72 1.7 NNW 37 54 20 29 1018.2 1012.2 0.0
26/07:00pm 0.9 -9.7 -3.7 71 1.8 NW 43 61 23 33 1017.9 1011.8 0.0
26/06:30pm 1.3 -8.6 -3.6 70 1.9 NNW 39 63 21 34 1017.5 1011.4 0.0
26/06:06pm 1.9 -7.9 -3.4 68 2.1 NNW 39 57 21 31 1017.5 1011.4 0.0
26/06:00pm 1.7 -7.4 -3.2 70 2.0 NW 35 50 19 27 1017.6 1011.6 0.0
26/05:37pm 1.8 -7.3 -3.3 69 2.0 NNW 35 54 19 29 1017.3 1011.2 0.0
26/05:30pm 2.0 -7.1 -3.3 68 2.1 NNW 35 50 19 27 1017.3 1011.2 0.0
26/05:09pm 2.2 -6.3 -3.1 68 2.0 NNW 32 54 17 29 1017.4 1011.3 0.0
26/05:00pm 2.2 -5.9 -3.3 67 2.1 NW 30 46 16 25 1017.4 1011.3 0.0
26/04:32pm 1.9 -5.8 -3.2 69 2.1 NW 28 52 15 28 1017.6 1011.6 0.0
26/04:30pm 1.9 -5.4 -3.0 70 1.9 NW 26 39 14 21 1017.7 1011.7 0.0
26/04:00pm 2.2 -5.9 -3.3 67 2.1 NNW 30 48 16 26 1017.6 1011.6 0.0
26/03:30pm 2.7 -6.2 -2.2 70 1.9 NNW 35 56 19 30 1017.4 1011.3 0.0
26/03:03pm 3.0 -5.9 -2.1 69 2.0 NNW 35 56 19 30 1017.1 1011.1 0.0
26/03:00pm 2.7 -5.8 -1.6 73 1.7 NNW 33 48 18 26 1017.3 1011.2 0.0
26/02:30pm 2.4 -6.5 -1.9 73 1.7 NNW 35 56 19 30 1017.1 1011.1 0.0
26/02:00pm 2.7 -7.0 -2.2 70 1.9 NW 39 59 21 32 1017.0 1011.0 0.0
26/01:30pm 3.3 -6.8 -2.2 67 2.2 NNW 41 59 22 32 1016.8 1010.7 0.0
26/01:00pm 2.9 -5.3 -1.3 74 1.7 NW 32 57 17 31 1016.7 1010.6 0.0
26/12:34pm 1.4 -8.3 -2.2 77 1.5 NNW 39 57 21 31 1016.5 1010.5 0.0
26/12:30pm 1.9 -7.9 -0.5 84 1.0 NNW 41 56 22 30 1016.5 1010.5 0.0
26/12:06pm 1.4 -7.8 1.1 98 0.1 NNW 39 57 21 31 1016.3 1010.2 0.0
26/12:00pm 1.2 -8.0 1.1 99 0.0 NNW 39 54 21 29 1016.3 1010.2 0.0
26/11:30am 0.1 -9.3 0.0 99 0.0 NNW 39 57 21 31 1016.2 1010.1 0.0
26/11:26am 0.1 -9.3 0.0 99 0.0 NNW 39 57 21 31 1016.1 1010.0 0.0
26/11:00am -0.2 -10.0 -0.3 99 0.0 NNW 41 56 22 30 1016.2 1010.1 0.0
26/10:30am -0.2 -9.6 -0.3 99 0.0 NNW 39 50 21 27 1016.2 1010.1 0.0
26/10:00am -0.4 -8.7 -0.5 99 0.0 NNW 33 46 18 25 1016.4 1010.3 0.0
26/09:30am -0.4 -9.9 -0.7 98 0.1 NNW 39 54 21 29 1016.1 1010.0 0.0
26/09:00am 0.8 -7.9 -0.6 90 0.6 NNW 35 48 19 26 1016.2 1010.1 0.0
26/08:37am 0.6 -7.5 -0.5 92 0.4 NNW 32 50 17 27 1016.4 1010.3 0.0
26/08:30am 0.7 -7.6 -0.6 91 0.5 NNW 33 44 18 24 1016.3 1010.2 0.0
26/08:00am 0.6 -7.8 -1.0 89 0.7 NNW 33 48 18 26 1016.1 1010.0 0.0
26/07:30am 0.7 -8.1 -1.2 87 0.8 NNW 35 52 19 28 1015.9 1009.8 0.0
26/07:00am 0.8 -7.6 -1.3 86 0.9 NNW 33 50 18 27 1015.9 1009.8 0.0
26/06:30am 0.7 -7.6 -1.4 86 0.9 NNW 32 46 17 25 1015.9 1009.8 0.0
26/06:00am 0.8 -7.1 -1.3 86 0.9 NNW 30 43 16 23 1015.8 1009.7 0.0
26/05:30am 0.9 -7.5 -1.3 85 0.9 NW 33 54 18 29 1015.8 1009.7 0.0
26/05:00am 1.0 -7.5 -1.9 81 1.2 NW 33 50 18 27 1015.5 1009.4 0.0
26/04:30am 1.6 -7.3 -1.8 78 1.3 NW 35 46 19 25 1015.5 1009.4 0.0
26/04:00am 1.8 -7.1 -1.6 78 1.4 NW 35 48 19 26 1015.7 1009.6 0.0
26/03:30am 1.8 -7.8 -1.4 79 1.3 NW 39 52 21 28 1015.9 1009.8 0.0
26/03:00am 1.9 -8.0 -0.7 83 1.1 NW 41 54 22 29 1015.9 1009.8 0.0
26/02:49am 1.6 -7.5 -0.5 86 0.9 NW 37 57 20 31 1016.1 1010.0 0.0
26/02:30am 1.5 -7.5 0.2 91 0.5 NW 37 50 20 27 1016.2 1010.1 0.0
26/02:01am 1.9 -6.1 0.6 91 0.5 NW 32 50 17 27 1016.3 1010.2 0.0
26/02:00am 1.9 -6.3 0.6 91 0.5 NW 33 50 18 27 1016.3 1010.2 0.0
26/01:40am 2.6 -6.6 1.0 89 0.7 NW 39 61 21 33 1016.1 1010.0 0.0
26/01:30am 2.8 -6.7 1.8 93 0.4 NNW 41 54 22 29 1016.2 1010.1 0.0
26/01:14am 3.1 -5.6 1.8 91 0.6 NNW 37 56 20 30 1016.2 1010.1 0.0
26/01:00am 3.4 -6.1 1.9 90 0.7 NNW 41 56 22 30 1016.2 1010.1 0.0
26/12:30am 3.5 -6.0 1.5 87 0.9 NNW 41 52 22 28 1016.2 1010.1 0.0
26/12:00am 3.7 -6.2 1.4 85 1.0 NNW 43 57 23 31 1016.4 1010.3 0.0
 
Date/Time
EDT
Temp
°C
App
Temp
°C
Dew
Point
Rel
Hum
%
Delta-T
°C
Wind Press
QNH
hPa
Press
MSL
hPa
Rain
since 9 am
mm
Dir
 
Spd
km/h
Gust
km/h
Spd
kts
Gust
kts
25/11:30pm 3.8 -6.3 1.4 84 1.1 NNW 44 57 24 31 1016.4 1010.3 0.0
25/11:00pm 4.0 -5.9 1.4 83 1.1 NNW 43 56 23 30 1016.7 1010.6 0.0
25/10:30pm 4.4 -5.5 1.6 82 1.2 NNW 43 54 23 29 1016.9 1010.8 0.0
25/10:00pm 5.0 -4.0 2.2 82 1.3 NNW 39 52 21 28 1017.5 1011.4 0.0
25/09:30pm 5.5 -3.5 2.7 82 1.3 NNW 39 56 21 30 1017.4 1011.3 0.0
25/09:00pm 5.8 -2.0 3.1 83 1.3 NNW 33 46 18 25 1017.7 1011.7 0.0
25/08:30pm 6.0 -1.5 3.2 82 1.3 NNW 32 43 17 23 1017.6 1011.6 0.0
25/08:00pm 5.9 -1.7 3.1 82 1.3 NNW 32 41 17 22 1017.6 1011.6 0.0
25/07:30pm 6.0 -1.1 3.7 85 1.1 NNW 30 41 16 22 1017.3 1011.2 0.0
25/07:00pm 6.2 -0.5 3.5 83 1.3 NNW 28 43 15 23 1017.5 1011.4 0.0
25/06:30pm 6.5 -1.0 3.7 82 1.3 NNW 32 46 17 25 1017.4 1011.3 0.0
25/06:00pm 7.5 1.3 4.1 79 1.6 NNW 26 39 14 21 1017.4 1011.3 0.0
25/05:30pm 7.6 1.4 4.2 79 1.6 NNW 26 37 14 20 1017.5 1011.4 0.0
25/05:00pm 7.7 1.0 3.7 76 1.9 NNW 28 41 15 22 1017.1 1011.1 0.0
25/04:30pm 8.6 1.5 3.8 72 2.3 NNW 30 44 16 24 1017.3 1011.2 0.0
25/04:00pm 7.7 0.3 3.9 77 1.8 N 32 43 17 23 1017.4 1011.3 0.0
25/03:30pm 8.0 1.8 4.4 78 1.8 N 26 43 14 23 1017.5 1011.4 0.0
25/03:00pm 7.9 0.8 3.8 75 2.0 NNW 30 39 16 21 1017.9 1011.8 0.0
25/02:30pm 8.4 2.3 4.8 78 1.8 NNW 26 37 14 20 1018.2 1012.2 0.0
25/02:00pm 8.8 2.9 3.8 71 2.4 NNW 24 37 13 20 1018.4 1012.4 0.0
25/01:30pm 8.9 4.0 4.3 73 2.3 NNW 19 30 10 16 1018.6 1012.6 0.0
25/01:00pm 8.0 2.7 4.9 81 1.5 N 22 32 12 17 1019.2 1013.2 0.0
25/12:30pm 6.4 1.1 5.2 92 0.6 N 22 33 12 18 1019.3 1013.3 0.0
25/12:00pm 5.1 0.3 4.5 96 0.3 N 19 26 10 14 1019.4 1013.4 0.0
25/11:30am 5.6 0.7 4.2 91 0.7 NNW 19 26 10 14 1019.6 1013.7 0.0
25/11:00am 5.9 1.7 3.9 87 0.9 NNW 15 22 8 12 1020.1 1014.2 0.0
25/10:30am 6.6 2.0 3.9 83 1.3 NNW 17 28 9 15 1019.6 1013.7 0.0
25/10:00am 6.8 2.5 3.2 78 1.7 NNW 15 22 8 12 1019.4 1013.4 0.0
25/09:30am 6.2 2.3 3.2 81 1.4 NNW 13 20 7 11 1019.0 1013.0 0.0
25/09:00am 5.7 1.7 2.9 82 1.3 NNW 13 19 7 10 1018.9 1012.9 0.0
25/08:30am 5.8 2.5 2.6 80 1.5 NNW 9 15 5 8 1018.7 1012.7 0.0
25/08:00am 4.6 2.3 4.6 100 0.0 NNW 6 7 3 4 1018.3 1012.3 0.0
25/07:30am 3.7 1.2 3.7 100 0.0 WNW 6 7 3 4 1018.2 1012.2 0.0
25/07:00am 3.1 -0.1 3.1 100 0.0 W 9 11 5 6 1018.2 1012.2 0.0
25/06:30am 2.5 -0.8 2.5 100 0.0 S 9 9 5 5 1018.0 1011.9 0.0
25/06:00am 2.6 -0.7 2.6 100 0.0 SSE 9 13 5 7 1017.9 1011.8 0.0
25/05:30am 3.0 -0.6 3.0 100 0.0 S 11 13 6 7 1018.0 1011.9 0.0
25/05:00am 3.2 -0.7 3.2 100 0.0 SSE 13 19 7 10 1017.7 1011.7 0.0
25/04:30am 3.2 -1.5 3.2 100 0.0 SSE 17 22 9 12 1017.3 1011.2 0.0
25/04:00am 3.5 -1.5 3.5 100 0.0 SSE 19 24 10 13 1017.4 1011.3 0.0
25/03:30am 3.4 -0.9 3.4 100 0.0 SSE 15 22 8 12 1018.0 1011.9 0.0
25/03:00am 3.6 -1.6 3.6 100 0.0 SSE 20 28 11 15 1017.7 1011.7 0.0
25/02:30am 4.0 -0.5 4.0 100 0.0 SE 17 24 9 13 1018.0 1011.9 0.0
25/02:00am 4.0 -1.1 4.0 100 0.0 SSE 20 32 11 17 1018.1 1012.1 0.0
25/01:30am 4.1 -2.1 4.1 100 0.0 SSE 26 33 14 18 1018.2 1012.2 0.0
25/01:00am 4.0 -2.6 4.0 100 0.0 SSE 28 37 15 20 1018.1 1012.1 0.0
25/12:30am 3.8 -1.2 3.8 100 0.0 SSE 19 30 10 16 1018.1 1012.1 0.0
25/12:00am 3.7 -1.9 3.7 100 0.0 SSE 22 32 12 17 1018.1 1012.1 0.0
 
Date/Time
EDT
Temp
°C
App
Temp
°C
Dew
Point
Rel
Hum
%
Delta-T
°C
Wind Press
QNH
hPa
Press
MSL
hPa
Rain
since 9 am
mm
Dir
 
Spd
km/h
Gust
km/h
Spd
kts
Gust
kts
24/11:30pm 3.5 -1.7 3.5 100 0.0 SSE 20 32 11 17 1018.6 1012.6 0.0
24/11:00pm 3.6 -2.4 3.6 100 0.0 SSE 24 32 13 17 1018.7 1012.7 0.0
24/10:30pm 3.5 -2.5 3.5 100 0.0 SSE 24 30 13 16 1018.6 1012.6 0.0
24/10:00pm 3.3 -3.5 3.3 100 0.0 SSE 28 37 15 20 1018.4 1012.4 0.0
24/09:30pm 3.3 -3.5 3.3 100 0.0 SSE 28 35 15 19 1018.1 1012.1 0.0
24/09:00pm 3.3 -3.5 3.3 100 0.0 SSE 28 37 15 20 1017.7 1011.7 0.0
24/08:30pm 3.3 -3.5 3.3 100 0.0 S 28 37 15 20 1017.4 1011.3 0.0
24/08:00pm 3.5 -1.7 3.5 100 0.0 SSE 20 28 11 15 1017.0 1011.0 0.0
24/07:30pm 3.6 -1.4 3.6 100 0.0 S 19 28 10 15 1016.7 1010.6 0.0
24/07:00pm 4.0 -1.0 3.7 98 0.1 S 19 24 10 13 1016.3 1010.2 0.0
24/06:30pm 4.2 -0.3 4.2 100 0.0 S 17 22 9 12 1016.1 1010.0 0.0

Other Formats:

Comma delimited format used in spreadsheet applications
http://www.bom.gov.au/fwo/IDV60801/IDV60801.94903.axf

JavaScript Object Notation format (JSON) in row-major order
http://www.bom.gov.au/fwo/IDV60801/IDV60801.94903.json